Terminal Aerodrome Forecast
Issued by NWS

Home | Current Version | Previous Version | Text Only | Print | Product List | Glossary On
Versions: 1 2 3 4 5 6 7 8 9 10 11 12 13 14 15 16 17
000
FTUS46 KMTR 231100
TAFSNS
TAF
KSNS 231135Z 2312/2412 24008KT P6SM FEW008 OVC020
      TEMPO 2312/2314 -DZ BKN008
     FM231800 28012KT P6SM BKN015 OVC030
     FM232000 27015G22KT P6SM SCT015 OVC030
     FM240200 25010G15KT P6SM BKN015
     FM240800 25006KT P6SM OVC015=

USA.gov is the U.S. government's official web portal to all federal, state and local government web resources and services.